sensor_id;sensor_type;location;lat;lon;timestamp;P1;durP1;ratioP1;P2;durP2;ratioP2
44508;SDS011;30214;52.246;14.408;2023-01-05T00:00:52;2.58;;;0.82;;
44508;SDS011;30214;52.246;14.408;2023-01-05T00:03:20;4.43;;;1.10;;
44508;SDS011;30214;52.246;14.408;2023-01-05T00:05:48;2.45;;;0.80;;
44508;SDS011;30214;52.246;14.408;2023-01-05T00:08:16;3.78;;;1.42;;
44508;SDS011;30214;52.246;14.408;2023-01-05T00:10:43;4.00;;;1.00;;
44508;SDS011;30214;52.246;14.408;2023-01-05T00:13:28;2.45;;;1.10;;
44508;SDS011;30214;52.246;14.408;2023-01-05T00:18:57;4.15;;;1.10;;
44508;SDS011;30214;52.246;14.408;2023-01-05T00:21:44;2.63;;;1.00;;
44508;SDS011;30214;52.246;14.408;2023-01-05T00:24:32;4.30;;;1.15;;
44508;SDS011;30214;52.246;14.408;2023-01-05T00:26:59;5.70;;;1.45;;
44508;SDS011;30214;52.246;14.408;2023-01-05T00:29:26;4.60;;;1.10;;
44508;SDS011;30214;52.246;14.408;2023-01-05T00:31:53;6.00;;;1.35;;
44508;SDS011;30214;52.246;14.408;2023-01-05T00:34:21;5.35;;;1.35;;
44508;SDS011;30214;52.246;14.408;2023-01-05T00:36:48;6.05;;;1.33;;
44508;SDS011;30214;52.246;14.408;2023-01-05T00:39:15;8.43;;;1.35;;
44508;SDS011;30214;52.246;14.408;2023-01-05T00:41:43;6.32;;;1.55;;
44508;SDS011;30214;52.246;14.408;2023-01-05T00:44:10;7.00;;;1.90;;
44508;SDS011;30214;52.246;14.408;2023-01-05T00:46:37;7.50;;;1.48;;
44508;SDS011;30214;52.246;14.408;2023-01-05T00:49:04;5.15;;;1.70;;
44508;SDS011;30214;52.246;14.408;2023-01-05T00:51:31;5.60;;;1.55;;
44508;SDS011;30214;52.246;14.408;2023-01-05T00:53:58;8.30;;;1.75;;
44508;SDS011;30214;52.246;14.408;2023-01-05T00:56:25;7.13;;;1.90;;
44508;SDS011;30214;52.246;14.408;2023-01-05T00:58:54;6.18;;;1.25;;
44508;SDS011;30214;52.246;14.408;2023-01-05T01:01:21;9.30;;;2.15;;
44508;SDS011;30214;52.246;14.408;2023-01-05T01:03:48;7.40;;;1.70;;
44508;SDS011;30214;52.246;14.408;2023-01-05T01:06:15;6.35;;;1.23;;
44508;SDS011;30214;52.246;14.408;2023-01-05T01:08:42;8.50;;;1.45;;
44508;SDS011;30214;52.246;14.408;2023-01-05T01:11:09;9.55;;;2.47;;
44508;SDS011;30214;52.246;14.408;2023-01-05T01:13:37;6.57;;;1.52;;
44508;SDS011;30214;52.246;14.408;2023-01-05T01:16:06;9.43;;;1.60;;
44508;SDS011;30214;52.246;14.408;2023-01-05T01:18:34;9.38;;;1.92;;
44508;SDS011;30214;52.246;14.408;2023-01-05T01:21:01;10.18;;;1.33;;
44508;SDS011;30214;52.246;14.408;2023-01-05T01:23:28;8.77;;;1.35;;
44508;SDS011;30214;52.246;14.408;2023-01-05T01:25:58;6.25;;;1.55;;
44508;SDS011;30214;52.246;14.408;2023-01-05T01:28:25;7.05;;;1.70;;
44508;SDS011;30214;52.246;14.408;2023-01-05T01:30:52;8.00;;;1.58;;
44508;SDS011;30214;52.246;14.408;2023-01-05T01:33:20;8.07;;;1.63;;
44508;SDS011;30214;52.246;14.408;2023-01-05T01:35:47;7.43;;;1.75;;
44508;SDS011;30214;52.246;14.408;2023-01-05T01:38:14;7.82;;;1.50;;
44508;SDS011;30214;52.246;14.408;2023-01-05T01:40:42;8.20;;;1.50;;
44508;SDS011;30214;52.246;14.408;2023-01-05T01:43:12;7.30;;;1.67;;
44508;SDS011;30214;52.246;14.408;2023-01-05T01:45:41;8.88;;;1.60;;
44508;SDS011;30214;52.246;14.408;2023-01-05T01:48:09;8.50;;;2.03;;
44508;SDS011;30214;52.246;14.408;2023-01-05T01:50:42;8.25;;;2.05;;
44508;SDS011;30214;52.246;14.408;2023-01-05T01:53:15;8.82;;;1.98;;
44508;SDS011;30214;52.246;14.408;2023-01-05T01:55:46;9.10;;;1.80;;
44508;SDS011;30214;52.246;14.408;2023-01-05T01:58:17;6.20;;;1.88;;
44508;SDS011;30214;52.246;14.408;2023-01-05T02:00:50;6.68;;;1.88;;
44508;SDS011;30214;52.246;14.408;2023-01-05T02:03:17;7.88;;;1.67;;
44508;SDS011;30214;52.246;14.408;2023-01-05T02:05:48;10.02;;;1.90;;
44508;SDS011;30214;52.246;14.408;2023-01-05T02:08:16;9.70;;;1.98;;
44508;SDS011;30214;52.246;14.408;2023-01-05T02:10:54;8.35;;;1.65;;
44508;SDS011;30214;52.246;14.408;2023-01-05T02:13:39;7.35;;;2.00;;
44508;SDS011;30214;52.246;14.408;2023-01-05T02:16:25;10.32;;;1.90;;
44508;SDS011;30214;52.246;14.408;2023-01-05T02:19:06;7.30;;;1.73;;
44508;SDS011;30214;52.246;14.408;2023-01-05T02:22:05;8.88;;;1.70;;
44508;SDS011;30214;52.246;14.408;2023-01-05T02:25:01;11.55;;;2.10;;
44508;SDS011;30214;52.246;14.408;2023-01-05T02:27:47;9.40;;;1.73;;
44508;SDS011;30214;52.246;14.408;2023-01-05T02:30:27;6.90;;;1.50;;
44508;SDS011;30214;52.246;14.408;2023-01-05T02:33:28;9.35;;;1.70;;
44508;SDS011;30214;52.246;14.408;2023-01-05T02:36:12;8.07;;;1.60;;
44508;SDS011;30214;52.246;14.408;2023-01-05T02:38:45;9.30;;;1.95;;
44508;SDS011;30214;52.246;14.408;2023-01-05T02:41:20;9.10;;;2.03;;
44508;SDS011;30214;52.246;14.408;2023-01-05T02:43:54;6.30;;;1.60;;
44508;SDS011;30214;52.246;14.408;2023-01-05T02:46:23;9.38;;;1.88;;
44508;SDS011;30214;52.246;14.408;2023-01-05T02:48:50;6.80;;;1.55;;
44508;SDS011;30214;52.246;14.408;2023-01-05T02:51:22;9.85;;;2.70;;
44508;SDS011;30214;52.246;14.408;2023-01-05T02:53:55;9.10;;;2.10;;
44508;SDS011;30214;52.246;14.408;2023-01-05T02:56:29;8.57;;;1.58;;
44508;SDS011;30214;52.246;14.408;2023-01-05T02:59:02;7.78;;;2.05;;
44508;SDS011;30214;52.246;14.408;2023-01-05T03:01:35;6.43;;;2.05;;
44508;SDS011;30214;52.246;14.408;2023-01-05T03:04:06;7.82;;;1.73;;
44508;SDS011;30214;52.246;14.408;2023-01-05T03:06:39;7.50;;;1.65;;
44508;SDS011;30214;52.246;14.408;2023-01-05T03:09:13;8.90;;;2.28;;
44508;SDS011;30214;52.246;14.408;2023-01-05T03:11:46;10.85;;;1.60;;
44508;SDS011;30214;52.246;14.408;2023-01-05T03:14:40;6.78;;;1.77;;
44508;SDS011;30214;52.246;14.408;2023-01-05T03:17:16;6.10;;;1.50;;
44508;SDS011;30214;52.246;14.408;2023-01-05T03:19:50;11.00;;;1.90;;
44508;SDS011;30214;52.246;14.408;2023-01-05T03:22:20;8.13;;;1.40;;
44508;SDS011;30214;52.246;14.408;2023-01-05T03:25:11;8.50;;;1.77;;
44508;SDS011;30214;52.246;14.408;2023-01-05T03:28:01;10.32;;;1.85;;
44508;SDS011;30214;52.246;14.408;2023-01-05T03:30:50;5.03;;;1.35;;
44508;SDS011;30214;52.246;14.408;2023-01-05T03:33:44;9.20;;;1.70;;
44508;SDS011;30214;52.246;14.408;2023-01-05T03:36:40;9.45;;;2.42;;
44508;SDS011;30214;52.246;14.408;2023-01-05T03:39:15;5.63;;;1.48;;
44508;SDS011;30214;52.246;14.408;2023-01-05T03:41:46;8.20;;;2.13;;
44508;SDS011;30214;52.246;14.408;2023-01-05T03:44:13;5.60;;;1.40;;
44508;SDS011;30214;52.246;14.408;2023-01-05T03:46:41;6.03;;;1.40;;
44508;SDS011;30214;52.246;14.408;2023-01-05T03:49:10;7.38;;;1.45;;
44508;SDS011;30214;52.246;14.408;2023-01-05T03:51:37;7.15;;;1.63;;
44508;SDS011;30214;52.246;14.408;2023-01-05T03:54:05;7.22;;;1.77;;
44508;SDS011;30214;52.246;14.408;2023-01-05T03:56:34;6.78;;;1.52;;
44508;SDS011;30214;52.246;14.408;2023-01-05T03:59:01;7.72;;;1.80;;
44508;SDS011;30214;52.246;14.408;2023-01-05T04:01:28;4.32;;;1.45;;
44508;SDS011;30214;52.246;14.408;2023-01-05T04:03:57;7.57;;;2.17;;
44508;SDS011;30214;52.246;14.408;2023-01-05T04:06:26;7.45;;;1.65;;
44508;SDS011;30214;52.246;14.408;2023-01-05T04:08:53;7.55;;;2.03;;
44508;SDS011;30214;52.246;14.408;2023-01-05T04:11:23;10.57;;;1.70;;
44508;SDS011;30214;52.246;14.408;2023-01-05T04:13:55;6.00;;;1.33;;
44508;SDS011;30214;52.246;14.408;2023-01-05T04:16:23;8.63;;;1.80;;
44508;SDS011;30214;52.246;14.408;2023-01-05T04:18:54;9.65;;;1.90;;
44508;SDS011;30214;52.246;14.408;2023-01-05T04:21:21;6.25;;;1.75;;
44508;SDS011;30214;52.246;14.408;2023-01-05T04:23:53;7.45;;;1.30;;
44508;SDS011;30214;52.246;14.408;2023-01-05T04:26:21;8.80;;;1.80;;
44508;SDS011;30214;52.246;14.408;2023-01-05T04:28:49;10.20;;;2.70;;
44508;SDS011;30214;52.246;14.408;2023-01-05T04:31:19;6.80;;;1.50;;
44508;SDS011;30214;52.246;14.408;2023-01-05T04:33:48;6.40;;;1.40;;
44508;SDS011;30214;52.246;14.408;2023-01-05T04:36:18;6.30;;;2.00;;
44508;SDS011;30214;52.246;14.408;2023-01-05T04:38:47;8.77;;;1.88;;
44508;SDS011;30214;52.246;14.408;2023-01-05T04:41:17;6.97;;;1.67;;
44508;SDS011;30214;52.246;14.408;2023-01-05T04:43:47;5.50;;;1.38;;
44508;SDS011;30214;52.246;14.408;2023-01-05T04:46:14;5.85;;;1.33;;
44508;SDS011;30214;52.246;14.408;2023-01-05T04:48:44;6.20;;;1.58;;
44508;SDS011;30214;52.246;14.408;2023-01-05T04:51:12;4.53;;;1.38;;
44508;SDS011;30214;52.246;14.408;2023-01-05T04:53:40;7.35;;;2.13;;
44508;SDS011;30214;52.246;14.408;2023-01-05T04:56:11;7.47;;;1.65;;
44508;SDS011;30214;52.246;14.408;2023-01-05T04:58:43;7.35;;;1.70;;
44508;SDS011;30214;52.246;14.408;2023-01-05T05:01:11;7.00;;;1.42;;
44508;SDS011;30214;52.246;14.408;2023-01-05T05:03:39;6.78;;;1.23;;
44508;SDS011;30214;52.246;14.408;2023-01-05T05:06:09;8.00;;;1.70;;
44508;SDS011;30214;52.246;14.408;2023-01-05T05:08:36;9.75;;;1.83;;
44508;SDS011;30214;52.246;14.408;2023-01-05T05:11:03;9.90;;;2.10;;
44508;SDS011;30214;52.246;14.408;2023-01-05T05:13:34;5.97;;;1.42;;
44508;SDS011;30214;52.246;14.408;2023-01-05T05:16:03;7.65;;;1.88;;
44508;SDS011;30214;52.246;14.408;2023-01-05T05:18:32;6.85;;;1.52;;
44508;SDS011;30214;52.246;14.408;2023-01-05T05:21:01;8.40;;;1.67;;
44508;SDS011;30214;52.246;14.408;2023-01-05T05:23:32;10.48;;;2.08;;
44508;SDS011;30214;52.246;14.408;2023-01-05T05:25:59;7.45;;;1.98;;
44508;SDS011;30214;52.246;14.408;2023-01-05T05:28:27;5.57;;;1.50;;
44508;SDS011;30214;52.246;14.408;2023-01-05T05:30:54;7.32;;;1.60;;
44508;SDS011;30214;52.246;14.408;2023-01-05T05:33:23;7.38;;;1.83;;
44508;SDS011;30214;52.246;14.408;2023-01-05T05:35:50;6.32;;;1.30;;
44508;SDS011;30214;52.246;14.408;2023-01-05T05:38:18;6.40;;;1.80;;
44508;SDS011;30214;52.246;14.408;2023-01-05T05:40:46;7.38;;;1.70;;
44508;SDS011;30214;52.246;14.408;2023-01-05T05:43:14;6.38;;;1.55;;
44508;SDS011;30214;52.246;14.408;2023-01-05T05:45:42;5.68;;;1.67;;
44508;SDS011;30214;52.246;14.408;2023-01-05T05:48:09;7.10;;;1.65;;
44508;SDS011;30214;52.246;14.408;2023-01-05T05:50:38;6.75;;;1.40;;
44508;SDS011;30214;52.246;14.408;2023-01-05T05:53:05;6.20;;;1.38;;
44508;SDS011;30214;52.246;14.408;2023-01-05T05:55:33;6.07;;;1.85;;
44508;SDS011;30214;52.246;14.408;2023-01-05T05:58:00;3.97;;;1.23;;
44508;SDS011;30214;52.246;14.408;2023-01-05T06:00:27;7.30;;;1.55;;
44508;SDS011;30214;52.246;14.408;2023-01-05T06:02:55;6.68;;;1.48;;
44508;SDS011;30214;52.246;14.408;2023-01-05T06:05:22;8.32;;;1.60;;
44508;SDS011;30214;52.246;14.408;2023-01-05T06:07:51;6.43;;;1.48;;
44508;SDS011;30214;52.246;14.408;2023-01-05T06:10:19;7.00;;;1.65;;
44508;SDS011;30214;52.246;14.408;2023-01-05T06:12:46;6.25;;;1.50;;
44508;SDS011;30214;52.246;14.408;2023-01-05T06:15:13;12.48;;;2.00;;
44508;SDS011;30214;52.246;14.408;2023-01-05T06:17:41;6.63;;;1.52;;
44508;SDS011;30214;52.246;14.408;2023-01-05T06:20:08;6.35;;;1.40;;
44508;SDS011;30214;52.246;14.408;2023-01-05T06:22:35;9.93;;;2.60;;
44508;SDS011;30214;52.246;14.408;2023-01-05T06:25:05;12.10;;;2.28;;
44508;SDS011;30214;52.246;14.408;2023-01-05T06:27:34;5.95;;;1.85;;
44508;SDS011;30214;52.246;14.408;2023-01-05T06:30:02;6.47;;;1.67;;
44508;SDS011;30214;52.246;14.408;2023-01-05T06:32:30;7.30;;;1.70;;
44508;SDS011;30214;52.246;14.408;2023-01-05T06:34:57;7.25;;;2.00;;
44508;SDS011;30214;52.246;14.408;2023-01-05T06:37:24;8.55;;;1.90;;
44508;SDS011;30214;52.246;14.408;2023-01-05T06:39:51;9.90;;;1.90;;
44508;SDS011;30214;52.246;14.408;2023-01-05T06:42:21;7.28;;;1.40;;
44508;SDS011;30214;52.246;14.408;2023-01-05T06:44:48;11.85;;;2.05;;
44508;SDS011;30214;52.246;14.408;2023-01-05T06:47:15;8.02;;;1.80;;
44508;SDS011;30214;52.246;14.408;2023-01-05T06:49:42;7.88;;;1.50;;
44508;SDS011;30214;52.246;14.408;2023-01-05T06:52:09;8.90;;;1.85;;
44508;SDS011;30214;52.246;14.408;2023-01-05T06:54:39;6.85;;;1.58;;
44508;SDS011;30214;52.246;14.408;2023-01-05T06:57:06;6.97;;;2.08;;
44508;SDS011;30214;52.246;14.408;2023-01-05T06:59:35;7.03;;;1.50;;
44508;SDS011;30214;52.246;14.408;2023-01-05T07:02:02;6.85;;;1.52;;
44508;SDS011;30214;52.246;14.408;2023-01-05T07:04:29;5.70;;;1.58;;
44508;SDS011;30214;52.246;14.408;2023-01-05T07:06:56;6.18;;;1.50;;
44508;SDS011;30214;52.246;14.408;2023-01-05T07:09:23;4.70;;;1.30;;
44508;SDS011;30214;52.246;14.408;2023-01-05T07:11:50;8.23;;;1.60;;
44508;SDS011;30214;52.246;14.408;2023-01-05T07:14:20;6.20;;;1.40;;
44508;SDS011;30214;52.246;14.408;2023-01-05T07:16:48;5.18;;;1.20;;
44508;SDS011;30214;52.246;14.408;2023-01-05T07:19:15;8.00;;;2.50;;
44508;SDS011;30214;52.246;14.408;2023-01-05T07:21:42;6.78;;;2.22;;
44508;SDS011;30214;52.246;14.408;2023-01-05T07:24:09;4.32;;;1.30;;
44508;SDS011;30214;52.246;14.408;2023-01-05T07:26:37;3.75;;;1.00;;
44508;SDS011;30214;52.246;14.408;2023-01-05T07:29:04;4.45;;;1.10;;
44508;SDS011;30214;52.246;14.408;2023-01-05T07:31:31;4.68;;;1.70;;
44508;SDS011;30214;52.246;14.408;2023-01-05T07:33:59;4.70;;;1.58;;
44508;SDS011;30214;52.246;14.408;2023-01-05T07:36:26;8.20;;;1.48;;
44508;SDS011;30214;52.246;14.408;2023-01-05T07:38:53;7.68;;;1.88;;
44508;SDS011;30214;52.246;14.408;2023-01-05T07:41:20;5.38;;;1.67;;
44508;SDS011;30214;52.246;14.408;2023-01-05T07:43:47;3.25;;;1.20;;
44508;SDS011;30214;52.246;14.408;2023-01-05T07:46:15;5.72;;;1.55;;
44508;SDS011;30214;52.246;14.408;2023-01-05T07:48:42;4.25;;;1.02;;
44508;SDS011;30214;52.246;14.408;2023-01-05T07:51:10;5.25;;;1.23;;
44508;SDS011;30214;52.246;14.408;2023-01-05T07:53:37;7.68;;;1.45;;
44508;SDS011;30214;52.246;14.408;2023-01-05T07:56:05;5.30;;;1.20;;
44508;SDS011;30214;52.246;14.408;2023-01-05T07:58:32;6.60;;;1.40;;
44508;SDS011;30214;52.246;14.408;2023-01-05T08:01:01;2.72;;;0.90;;
44508;SDS011;30214;52.246;14.408;2023-01-05T08:03:30;2.75;;;0.90;;
44508;SDS011;30214;52.246;14.408;2023-01-05T08:05:57;2.00;;;0.95;;
44508;SDS011;30214;52.246;14.408;2023-01-05T08:08:30;3.10;;;1.00;;
44508;SDS011;30214;52.246;14.408;2023-01-05T08:10:57;2.05;;;0.70;;
44508;SDS011;30214;52.246;14.408;2023-01-05T08:13:24;2.97;;;1.13;;
44508;SDS011;30214;52.246;14.408;2023-01-05T08:16:09;17.52;;;10.07;;
44508;SDS011;30214;52.246;14.408;2023-01-05T08:18:36;55.80;;;20.27;;
44508;SDS011;30214;52.246;14.408;2023-01-05T08:21:03;34.70;;;15.40;;
44508;SDS011;30214;52.246;14.408;2023-01-05T08:23:34;7.75;;;4.95;;
44508;SDS011;30214;52.246;14.408;2023-01-05T08:26:03;4.70;;;1.40;;
44508;SDS011;30214;52.246;14.408;2023-01-05T08:28:33;2.35;;;0.77;;
44508;SDS011;30214;52.246;14.408;2023-01-05T08:31:01;11.93;;;2.45;;
44508;SDS011;30214;52.246;14.408;2023-01-05T08:33:29;5.30;;;2.75;;
44508;SDS011;30214;52.246;14.408;2023-01-05T08:35:56;3.70;;;1.40;;
44508;SDS011;30214;52.246;14.408;2023-01-05T08:38:23;5.22;;;1.25;;
44508;SDS011;30214;52.246;14.408;2023-01-05T08:40:52;2.45;;;0.80;;
44508;SDS011;30214;52.246;14.408;2023-01-05T08:43:23;2.47;;;0.98;;
44508;SDS011;30214;52.246;14.408;2023-01-05T08:45:50;3.95;;;1.08;;
44508;SDS011;30214;52.246;14.408;2023-01-05T08:48:17;2.92;;;1.00;;
44508;SDS011;30214;52.246;14.408;2023-01-05T08:50:47;2.80;;;0.90;;
44508;SDS011;30214;52.246;14.408;2023-01-05T08:53:14;2.75;;;1.00;;
44508;SDS011;30214;52.246;14.408;2023-01-05T08:55:41;2.20;;;0.80;;
44508;SDS011;30214;52.246;14.408;2023-01-05T08:58:10;1.25;;;0.65;;
44508;SDS011;30214;52.246;14.408;2023-01-05T09:00:37;1.77;;;0.77;;
44508;SDS011;30214;52.246;14.408;2023-01-05T09:03:04;1.95;;;0.63;;
44508;SDS011;30214;52.246;14.408;2023-01-05T09:05:31;1.23;;;0.50;;
44508;SDS011;30214;52.246;14.408;2023-01-05T09:07:58;2.20;;;0.70;;
44508;SDS011;30214;52.246;14.408;2023-01-05T09:10:25;1.85;;;0.70;;
44508;SDS011;30214;52.246;14.408;2023-01-05T09:12:52;1.90;;;0.50;;
44508;SDS011;30214;52.246;14.408;2023-01-05T09:15:20;1.48;;;0.50;;
44508;SDS011;30214;52.246;14.408;2023-01-05T09:17:47;2.08;;;0.70;;
44508;SDS011;30214;52.246;14.408;2023-01-05T09:20:14;2.65;;;0.68;;
44508;SDS011;30214;52.246;14.408;2023-01-05T09:22:41;1.40;;;0.70;;
44508;SDS011;30214;52.246;14.408;2023-01-05T09:25:09;1.90;;;0.60;;
44508;SDS011;30214;52.246;14.408;2023-01-05T09:27:36;2.25;;;0.70;;
44508;SDS011;30214;52.246;14.408;2023-01-05T09:30:03;2.13;;;0.63;;
44508;SDS011;30214;52.246;14.408;2023-01-05T09:35:03;0.73;;;0.55;;
44508;SDS011;30214;52.246;14.408;2023-01-05T09:37:31;2.08;;;0.50;;
44508;SDS011;30214;52.246;14.408;2023-01-05T09:39:58;19.80;;;9.40;;
44508;SDS011;30214;52.246;14.408;2023-01-05T09:42:25;6.55;;;2.70;;
44508;SDS011;30214;52.246;14.408;2023-01-05T09:44:55;2.03;;;0.90;;
44508;SDS011;30214;52.246;14.408;2023-01-05T09:47:28;1.60;;;0.60;;
44508;SDS011;30214;52.246;14.408;2023-01-05T09:50:01;1.33;;;0.60;;
44508;SDS011;30214;52.246;14.408;2023-01-05T09:52:32;4.35;;;0.60;;
44508;SDS011;30214;52.246;14.408;2023-01-05T09:55:01;2.55;;;0.70;;
44508;SDS011;30214;52.246;14.408;2023-01-05T09:57:31;1.13;;;0.43;;
44508;SDS011;30214;52.246;14.408;2023-01-05T10:00:00;2.20;;;0.50;;
44508;SDS011;30214;52.246;14.408;2023-01-05T10:02:34;1.90;;;0.50;;
44508;SDS011;30214;52.246;14.408;2023-01-05T10:05:12;3.92;;;0.68;;
44508;SDS011;30214;52.246;14.408;2023-01-05T10:07:41;1.73;;;0.65;;
44508;SDS011;30214;52.246;14.408;2023-01-05T10:10:14;1.10;;;0.50;;
44508;SDS011;30214;52.246;14.408;2023-01-05T10:12:51;2.97;;;0.68;;
44508;SDS011;30214;52.246;14.408;2023-01-05T10:15:31;1.40;;;0.60;;
44508;SDS011;30214;52.246;14.408;2023-01-05T10:18:08;2.20;;;0.70;;
44508;SDS011;30214;52.246;14.408;2023-01-05T10:20:48;2.55;;;0.55;;
44508;SDS011;30214;52.246;14.408;2023-01-05T10:23:28;2.42;;;0.90;;
44508;SDS011;30214;52.246;14.408;2023-01-05T10:26:23;2.42;;;0.68;;
44508;SDS011;30214;52.246;14.408;2023-01-05T10:28:58;3.17;;;0.70;;
44508;SDS011;30214;52.246;14.408;2023-01-05T10:31:37;2.42;;;0.82;;
44508;SDS011;30214;52.246;14.408;2023-01-05T10:34:19;1.85;;;0.70;;
44508;SDS011;30214;52.246;14.408;2023-01-05T10:36:52;2.20;;;0.70;;
44508;SDS011;30214;52.246;14.408;2023-01-05T10:39:49;1.88;;;0.70;;
44508;SDS011;30214;52.246;14.408;2023-01-05T10:42:31;1.92;;;0.80;;
44508;SDS011;30214;52.246;14.408;2023-01-05T10:45:11;2.60;;;0.80;;
44508;SDS011;30214;52.246;14.408;2023-01-05T10:47:40;3.72;;;1.00;;
44508;SDS011;30214;52.246;14.408;2023-01-05T10:50:24;3.58;;;0.85;;
44508;SDS011;30214;52.246;14.408;2023-01-05T10:53:04;4.20;;;0.80;;
44508;SDS011;30214;52.246;14.408;2023-01-05T10:55:48;3.17;;;0.88;;
44508;SDS011;30214;52.246;14.408;2023-01-05T10:58:25;5.35;;;1.00;;
44508;SDS011;30214;52.246;14.408;2023-01-05T11:00:55;4.07;;;1.08;;
44508;SDS011;30214;52.246;14.408;2023-01-05T11:06:02;2.00;;;0.63;;
44508;SDS011;30214;52.246;14.408;2023-01-05T11:08:31;3.25;;;0.85;;
44508;SDS011;30214;52.246;14.408;2023-01-05T11:10:58;4.55;;;0.73;;
44508;SDS011;30214;52.246;14.408;2023-01-05T11:13:29;1.88;;;0.80;;
44508;SDS011;30214;52.246;14.408;2023-01-05T11:16:00;3.92;;;0.80;;
44508;SDS011;30214;52.246;14.408;2023-01-05T11:18:35;4.22;;;0.95;;
44508;SDS011;30214;52.246;14.408;2023-01-05T11:21:12;3.33;;;0.70;;
44508;SDS011;30214;52.246;14.408;2023-01-05T11:23:43;2.97;;;1.10;;
44508;SDS011;30214;52.246;14.408;2023-01-05T11:26:23;4.15;;;1.10;;
44508;SDS011;30214;52.246;14.408;2023-01-05T11:28:58;4.30;;;1.38;;
44508;SDS011;30214;52.246;14.408;2023-01-05T11:31:36;3.65;;;0.90;;
44508;SDS011;30214;52.246;14.408;2023-01-05T11:34:14;5.45;;;0.98;;
44508;SDS011;30214;52.246;14.408;2023-01-05T11:37:01;2.88;;;1.00;;
44508;SDS011;30214;52.246;14.408;2023-01-05T11:39:34;4.43;;;1.73;;
44508;SDS011;30214;52.246;14.408;2023-01-05T11:42:12;4.15;;;1.17;;
44508;SDS011;30214;52.246;14.408;2023-01-05T11:44:45;4.82;;;0.90;;
44508;SDS011;30214;52.246;14.408;2023-01-05T11:47:25;6.47;;;0.95;;
44508;SDS011;30214;52.246;14.408;2023-01-05T11:49:57;4.28;;;1.10;;
44508;SDS011;30214;52.246;14.408;2023-01-05T11:52:32;6.35;;;1.27;;
44508;SDS011;30214;52.246;14.408;2023-01-05T11:57:58;3.50;;;0.98;;
44508;SDS011;30214;52.246;14.408;2023-01-05T12:00:53;5.10;;;1.20;;
44508;SDS011;30214;52.246;14.408;2023-01-05T12:03:54;6.05;;;1.20;;
44508;SDS011;30214;52.246;14.408;2023-01-05T12:06:41;5.72;;;1.10;;
44508;SDS011;30214;52.246;14.408;2023-01-05T12:09:31;3.63;;;0.90;;
44508;SDS011;30214;52.246;14.408;2023-01-05T12:12:05;5.05;;;1.45;;
44508;SDS011;30214;52.246;14.408;2023-01-05T12:17:55;6.28;;;2.05;;
44508;SDS011;30214;52.246;14.408;2023-01-05T12:20:40;6.28;;;1.17;;
44508;SDS011;30214;52.246;14.408;2023-01-05T12:26:13;4.47;;;1.20;;
44508;SDS011;30214;52.246;14.408;2023-01-05T12:28:53;4.70;;;1.42;;
44508;SDS011;30214;52.246;14.408;2023-01-05T12:38:15;3.97;;;1.20;;
44508;SDS011;30214;52.246;14.408;2023-01-05T12:41:05;11.43;;;1.40;;
44508;SDS011;30214;52.246;14.408;2023-01-05T12:43:54;9.05;;;1.20;;
44508;SDS011;30214;52.246;14.408;2023-01-05T12:46:40;5.07;;;1.00;;
44508;SDS011;30214;52.246;14.408;2023-01-05T12:49:26;4.97;;;0.90;;
44508;SDS011;30214;52.246;14.408;2023-01-05T12:52:03;8.57;;;1.10;;
44508;SDS011;30214;52.246;14.408;2023-01-05T12:54:37;2.67;;;0.80;;
44508;SDS011;30214;52.246;14.408;2023-01-05T12:57:10;4.05;;;1.08;;
44508;SDS011;30214;52.246;14.408;2023-01-05T12:59:47;4.95;;;0.98;;
44508;SDS011;30214;52.246;14.408;2023-01-05T13:02:25;3.17;;;0.80;;
44508;SDS011;30214;52.246;14.408;2023-01-05T13:05:06;3.88;;;0.95;;
44508;SDS011;30214;52.246;14.408;2023-01-05T13:07:44;3.72;;;0.95;;
44508;SDS011;30214;52.246;14.408;2023-01-05T13:10:25;5.95;;;1.13;;
44508;SDS011;30214;52.246;14.408;2023-01-05T13:13:02;6.70;;;0.90;;
44508;SDS011;30214;52.246;14.408;2023-01-05T13:15:40;5.40;;;1.20;;
44508;SDS011;30214;52.246;14.408;2023-01-05T13:18:16;4.25;;;0.88;;
44508;SDS011;30214;52.246;14.408;2023-01-05T13:20:45;6.85;;;1.10;;
44508;SDS011;30214;52.246;14.408;2023-01-05T13:23:19;5.35;;;1.05;;
44508;SDS011;30214;52.246;14.408;2023-01-05T13:25:52;6.18;;;1.13;;
44508;SDS011;30214;52.246;14.408;2023-01-05T13:28:24;4.15;;;1.35;;
44508;SDS011;30214;52.246;14.408;2023-01-05T13:31:03;5.90;;;1.63;;
44508;SDS011;30214;52.246;14.408;2023-01-05T13:37:10;4.70;;;1.60;;
44508;SDS011;30214;52.246;14.408;2023-01-05T13:43:10;4.07;;;0.88;;
44508;SDS011;30214;52.246;14.408;2023-01-05T13:46:06;3.78;;;1.10;;
44508;SDS011;30214;52.246;14.408;2023-01-05T13:52:09;3.90;;;0.90;;
44508;SDS011;30214;52.246;14.408;2023-01-05T13:54:51;8.82;;;1.20;;
44508;SDS011;30214;52.246;14.408;2023-01-05T13:57:26;6.50;;;1.10;;
44508;SDS011;30214;52.246;14.408;2023-01-05T13:59:56;5.40;;;1.35;;
44508;SDS011;30214;52.246;14.408;2023-01-05T14:02:39;4.90;;;1.05;;
44508;SDS011;30214;52.246;14.408;2023-01-05T14:05:14;6.50;;;1.13;;
44508;SDS011;30214;52.246;14.408;2023-01-05T14:07:49;3.05;;;0.90;;
44508;SDS011;30214;52.246;14.408;2023-01-05T14:10:21;3.00;;;0.90;;
44508;SDS011;30214;52.246;14.408;2023-01-05T14:12:51;5.35;;;1.00;;
44508;SDS011;30214;52.246;14.408;2023-01-05T14:15:36;4.13;;;1.10;;
44508;SDS011;30214;52.246;14.408;2023-01-05T14:18:07;6.13;;;1.42;;
44508;SDS011;30214;52.246;14.408;2023-01-05T14:20:37;3.40;;;1.00;;
44508;SDS011;30214;52.246;14.408;2023-01-05T14:32:29;7.55;;;3.50;;
44508;SDS011;30214;52.246;14.408;2023-01-05T14:35:04;2.92;;;1.15;;
44508;SDS011;30214;52.246;14.408;2023-01-05T14:37:48;6.28;;;1.50;;
44508;SDS011;30214;52.246;14.408;2023-01-05T14:40:30;7.13;;;2.38;;
44508;SDS011;30214;52.246;14.408;2023-01-05T14:43:04;3.93;;;1.10;;
44508;SDS011;30214;52.246;14.408;2023-01-05T14:45:59;3.53;;;1.40;;
44508;SDS011;30214;52.246;14.408;2023-01-05T14:48:31;3.80;;;1.00;;
44508;SDS011;30214;52.246;14.408;2023-01-05T14:51:07;1.90;;;0.90;;
44508;SDS011;30214;52.246;14.408;2023-01-05T14:53:44;4.03;;;1.10;;
44508;SDS011;30214;52.246;14.408;2023-01-05T14:56:13;2.78;;;0.90;;
44508;SDS011;30214;52.246;14.408;2023-01-05T14:58:51;5.28;;;1.45;;
44508;SDS011;30214;52.246;14.408;2023-01-05T15:01:22;3.67;;;1.05;;
44508;SDS011;30214;52.246;14.408;2023-01-05T15:03:56;3.60;;;0.98;;
44508;SDS011;30214;52.246;14.408;2023-01-05T15:06:36;2.53;;;1.02;;
44508;SDS011;30214;52.246;14.408;2023-01-05T15:12:22;4.82;;;1.02;;
44508;SDS011;30214;52.246;14.408;2023-01-05T15:15:44;5.03;;;1.13;;
44508;SDS011;30214;52.246;14.408;2023-01-05T15:18:31;5.45;;;1.80;;
44508;SDS011;30214;52.246;14.408;2023-01-05T15:21:54;3.83;;;1.45;;
44508;SDS011;30214;52.246;14.408;2023-01-05T15:24:46;4.68;;;1.05;;
44508;SDS011;30214;52.246;14.408;2023-01-05T15:27:47;7.93;;;1.80;;
44508;SDS011;30214;52.246;14.408;2023-01-05T15:30:39;6.30;;;1.23;;
44508;SDS011;30214;52.246;14.408;2023-01-05T15:33:41;3.20;;;0.88;;
44508;SDS011;30214;52.246;14.408;2023-01-05T15:36:18;4.07;;;1.27;;
44508;SDS011;30214;52.246;14.408;2023-01-05T15:38:55;4.35;;;1.30;;
44508;SDS011;30214;52.246;14.408;2023-01-05T15:41:23;2.60;;;1.00;;
44508;SDS011;30214;52.246;14.408;2023-01-05T15:43:51;5.82;;;1.10;;
44508;SDS011;30214;52.246;14.408;2023-01-05T15:46:25;3.35;;;1.20;;
44508;SDS011;30214;52.246;14.408;2023-01-05T15:48:57;5.07;;;1.50;;
44508;SDS011;30214;52.246;14.408;2023-01-05T15:51:26;3.15;;;1.42;;
44508;SDS011;30214;52.246;14.408;2023-01-05T15:53:58;4.43;;;1.50;;